sensor_id;sensor_type;location;lat;lon;timestamp;P1;durP1;ratioP1;P2;durP2;ratioP2
44426;SDS011;30133;47.866;-4.222;2022-08-07T00:01:59;4.72;;;1.35;;
44426;SDS011;30133;47.866;-4.222;2022-08-07T00:04:25;2.45;;;1.42;;
44426;SDS011;30133;47.866;-4.222;2022-08-07T00:06:51;2.78;;;1.30;;
44426;SDS011;30133;47.866;-4.222;2022-08-07T00:09:18;8.98;;;1.58;;
44426;SDS011;30133;47.866;-4.222;2022-08-07T00:11:45;3.85;;;1.13;;
44426;SDS011;30133;47.866;-4.222;2022-08-07T00:14:11;4.93;;;1.42;;
44426;SDS011;30133;47.866;-4.222;2022-08-07T00:16:37;2.10;;;1.30;;
44426;SDS011;30133;47.866;-4.222;2022-08-07T00:19:03;1.83;;;1.27;;
44426;SDS011;30133;47.866;-4.222;2022-08-07T00:21:29;3.63;;;1.40;;
44426;SDS011;30133;47.866;-4.222;2022-08-07T00:23:56;2.67;;;1.20;;
44426;SDS011;30133;47.866;-4.222;2022-08-07T00:26:28;3.75;;;1.80;;
44426;SDS011;30133;47.866;-4.222;2022-08-07T00:28:54;2.33;;;1.42;;
44426;SDS011;30133;47.866;-4.222;2022-08-07T00:31:20;2.40;;;1.30;;
44426;SDS011;30133;47.866;-4.222;2022-08-07T00:33:46;2.60;;;1.38;;
44426;SDS011;30133;47.866;-4.222;2022-08-07T00:36:12;2.55;;;1.80;;
44426;SDS011;30133;47.866;-4.222;2022-08-07T00:38:39;2.78;;;1.25;;
44426;SDS011;30133;47.866;-4.222;2022-08-07T00:41:06;3.53;;;1.20;;
44426;SDS011;30133;47.866;-4.222;2022-08-07T00:43:32;2.65;;;1.48;;
44426;SDS011;30133;47.866;-4.222;2022-08-07T00:45:59;2.47;;;1.48;;
44426;SDS011;30133;47.866;-4.222;2022-08-07T00:48:26;5.28;;;1.55;;
44426;SDS011;30133;47.866;-4.222;2022-08-07T00:50:52;3.20;;;2.05;;
44426;SDS011;30133;47.866;-4.222;2022-08-07T00:53:19;2.88;;;1.27;;
44426;SDS011;30133;47.866;-4.222;2022-08-07T00:55:47;4.15;;;1.58;;
44426;SDS011;30133;47.866;-4.222;2022-08-07T00:58:14;3.50;;;1.75;;
44426;SDS011;30133;47.866;-4.222;2022-08-07T01:00:40;3.28;;;1.58;;
44426;SDS011;30133;47.866;-4.222;2022-08-07T01:03:07;1.75;;;1.20;;
44426;SDS011;30133;47.866;-4.222;2022-08-07T01:05:33;2.00;;;1.17;;
44426;SDS011;30133;47.866;-4.222;2022-08-07T01:08:00;2.63;;;1.23;;
44426;SDS011;30133;47.866;-4.222;2022-08-07T01:10:27;3.30;;;1.33;;
44426;SDS011;30133;47.866;-4.222;2022-08-07T01:12:53;1.90;;;1.48;;
44426;SDS011;30133;47.866;-4.222;2022-08-07T01:15:20;3.50;;;1.23;;
44426;SDS011;30133;47.866;-4.222;2022-08-07T01:17:47;2.45;;;1.40;;
44426;SDS011;30133;47.866;-4.222;2022-08-07T01:20:14;2.15;;;1.38;;
44426;SDS011;30133;47.866;-4.222;2022-08-07T01:22:47;2.08;;;1.08;;
44426;SDS011;30133;47.866;-4.222;2022-08-07T01:25:13;2.58;;;1.52;;
44426;SDS011;30133;47.866;-4.222;2022-08-07T01:30:14;2.95;;;1.42;;
44426;SDS011;30133;47.866;-4.222;2022-08-07T01:32:41;2.55;;;1.60;;
44426;SDS011;30133;47.866;-4.222;2022-08-07T01:35:09;2.08;;;1.17;;
44426;SDS011;30133;47.866;-4.222;2022-08-07T01:37:35;2.50;;;1.67;;
44426;SDS011;30133;47.866;-4.222;2022-08-07T01:40:02;3.40;;;1.50;;
44426;SDS011;30133;47.866;-4.222;2022-08-07T01:42:32;2.05;;;1.30;;
44426;SDS011;30133;47.866;-4.222;2022-08-07T01:44:59;4.05;;;1.38;;
44426;SDS011;30133;47.866;-4.222;2022-08-07T01:47:26;3.72;;;1.65;;
44426;SDS011;30133;47.866;-4.222;2022-08-07T01:49:52;2.72;;;1.30;;
44426;SDS011;30133;47.866;-4.222;2022-08-07T01:52:19;5.82;;;1.50;;
44426;SDS011;30133;47.866;-4.222;2022-08-07T01:54:48;2.53;;;1.42;;
44426;SDS011;30133;47.866;-4.222;2022-08-07T01:57:18;1.92;;;1.50;;
44426;SDS011;30133;47.866;-4.222;2022-08-07T02:00:01;2.83;;;1.35;;
44426;SDS011;30133;47.866;-4.222;2022-08-07T02:02:34;2.10;;;1.48;;
44426;SDS011;30133;47.866;-4.222;2022-08-07T02:05:19;4.03;;;1.52;;
44426;SDS011;30133;47.866;-4.222;2022-08-07T02:07:53;3.28;;;1.63;;
44426;SDS011;30133;47.866;-4.222;2022-08-07T02:10:22;1.92;;;1.40;;
44426;SDS011;30133;47.866;-4.222;2022-08-07T02:12:50;2.55;;;1.63;;
44426;SDS011;30133;47.866;-4.222;2022-08-07T02:15:19;1.45;;;1.20;;
44426;SDS011;30133;47.866;-4.222;2022-08-07T02:17:50;3.08;;;1.52;;
44426;SDS011;30133;47.866;-4.222;2022-08-07T02:20:18;1.98;;;1.23;;
44426;SDS011;30133;47.866;-4.222;2022-08-07T02:22:46;2.90;;;1.48;;
44426;SDS011;30133;47.866;-4.222;2022-08-07T02:25:15;1.85;;;1.33;;
44426;SDS011;30133;47.866;-4.222;2022-08-07T02:27:43;2.75;;;1.50;;
44426;SDS011;30133;47.866;-4.222;2022-08-07T02:30:16;1.75;;;1.40;;
44426;SDS011;30133;47.866;-4.222;2022-08-07T02:32:43;1.90;;;1.33;;
44426;SDS011;30133;47.866;-4.222;2022-08-07T02:35:11;2.72;;;1.50;;
44426;SDS011;30133;47.866;-4.222;2022-08-07T02:37:43;1.85;;;1.45;;
44426;SDS011;30133;47.866;-4.222;2022-08-07T02:40:11;2.22;;;1.30;;
44426;SDS011;30133;47.866;-4.222;2022-08-07T02:42:38;4.30;;;2.00;;
44426;SDS011;30133;47.866;-4.222;2022-08-07T02:45:06;4.72;;;1.63;;
44426;SDS011;30133;47.866;-4.222;2022-08-07T02:47:36;3.20;;;1.50;;
44426;SDS011;30133;47.866;-4.222;2022-08-07T02:50:02;2.20;;;1.65;;
44426;SDS011;30133;47.866;-4.222;2022-08-07T02:52:32;3.78;;;1.98;;
44426;SDS011;30133;47.866;-4.222;2022-08-07T02:55:09;2.35;;;1.58;;
44426;SDS011;30133;47.866;-4.222;2022-08-07T02:57:45;1.73;;;1.30;;
44426;SDS011;30133;47.866;-4.222;2022-08-07T03:00:12;5.28;;;1.67;;
44426;SDS011;30133;47.866;-4.222;2022-08-07T03:02:40;2.55;;;1.67;;
44426;SDS011;30133;47.866;-4.222;2022-08-07T03:05:10;3.88;;;1.20;;
44426;SDS011;30133;47.866;-4.222;2022-08-07T03:07:38;4.32;;;1.42;;
44426;SDS011;30133;47.866;-4.222;2022-08-07T03:10:06;2.17;;;1.40;;
44426;SDS011;30133;47.866;-4.222;2022-08-07T03:12:33;2.67;;;1.50;;
44426;SDS011;30133;47.866;-4.222;2022-08-07T03:15:01;2.03;;;1.20;;
44426;SDS011;30133;47.866;-4.222;2022-08-07T03:17:28;2.95;;;1.42;;
44426;SDS011;30133;47.866;-4.222;2022-08-07T03:19:55;2.63;;;1.60;;
44426;SDS011;30133;47.866;-4.222;2022-08-07T03:22:22;3.50;;;2.10;;
44426;SDS011;30133;47.866;-4.222;2022-08-07T03:24:49;3.22;;;1.70;;
44426;SDS011;30133;47.866;-4.222;2022-08-07T03:27:15;2.45;;;1.45;;
44426;SDS011;30133;47.866;-4.222;2022-08-07T03:29:47;2.35;;;1.40;;
44426;SDS011;30133;47.866;-4.222;2022-08-07T03:32:22;1.92;;;1.30;;
44426;SDS011;30133;47.866;-4.222;2022-08-07T03:34:55;2.33;;;1.50;;
44426;SDS011;30133;47.866;-4.222;2022-08-07T03:37:24;2.65;;;1.70;;
44426;SDS011;30133;47.866;-4.222;2022-08-07T03:39:54;2.10;;;1.23;;
44426;SDS011;30133;47.866;-4.222;2022-08-07T03:42:21;3.35;;;1.67;;
44426;SDS011;30133;47.866;-4.222;2022-08-07T03:44:47;1.85;;;1.35;;
44426;SDS011;30133;47.866;-4.222;2022-08-07T03:47:14;3.08;;;1.60;;
44426;SDS011;30133;47.866;-4.222;2022-08-07T03:49:43;2.83;;;2.05;;
44426;SDS011;30133;47.866;-4.222;2022-08-07T03:52:10;2.53;;;1.13;;
44426;SDS011;30133;47.866;-4.222;2022-08-07T03:54:38;2.53;;;1.40;;
44426;SDS011;30133;47.866;-4.222;2022-08-07T03:57:04;2.30;;;1.67;;
44426;SDS011;30133;47.866;-4.222;2022-08-07T03:59:31;1.88;;;1.30;;
44426;SDS011;30133;47.866;-4.222;2022-08-07T04:01:57;1.40;;;1.10;;
44426;SDS011;30133;47.866;-4.222;2022-08-07T04:04:24;3.08;;;1.67;;
44426;SDS011;30133;47.866;-4.222;2022-08-07T04:06:51;2.10;;;1.48;;
44426;SDS011;30133;47.866;-4.222;2022-08-07T04:09:18;2.63;;;1.75;;
44426;SDS011;30133;47.866;-4.222;2022-08-07T04:11:45;1.50;;;1.27;;
44426;SDS011;30133;47.866;-4.222;2022-08-07T04:14:13;1.88;;;1.38;;
44426;SDS011;30133;47.866;-4.222;2022-08-07T04:16:40;2.13;;;1.40;;
44426;SDS011;30133;47.866;-4.222;2022-08-07T04:19:06;1.55;;;1.25;;
44426;SDS011;30133;47.866;-4.222;2022-08-07T04:21:39;2.58;;;1.80;;
44426;SDS011;30133;47.866;-4.222;2022-08-07T04:24:06;2.00;;;1.40;;
44426;SDS011;30133;47.866;-4.222;2022-08-07T04:26:38;2.78;;;1.27;;
44426;SDS011;30133;47.866;-4.222;2022-08-07T04:29:05;1.92;;;1.40;;
44426;SDS011;30133;47.866;-4.222;2022-08-07T04:31:36;3.45;;;1.52;;
44426;SDS011;30133;47.866;-4.222;2022-08-07T04:34:10;3.00;;;1.60;;
44426;SDS011;30133;47.866;-4.222;2022-08-07T04:36:37;3.05;;;1.50;;
44426;SDS011;30133;47.866;-4.222;2022-08-07T04:39:05;1.80;;;1.23;;
44426;SDS011;30133;47.866;-4.222;2022-08-07T04:41:31;2.35;;;1.70;;
44426;SDS011;30133;47.866;-4.222;2022-08-07T04:43:57;2.70;;;1.52;;
44426;SDS011;30133;47.866;-4.222;2022-08-07T04:46:43;2.88;;;1.40;;
44426;SDS011;30133;47.866;-4.222;2022-08-07T04:50:07;4.28;;;1.60;;
44426;SDS011;30133;47.866;-4.222;2022-08-07T04:52:45;1.80;;;1.30;;
44426;SDS011;30133;47.866;-4.222;2022-08-07T05:04:07;1.77;;;1.23;;
44426;SDS011;30133;47.866;-4.222;2022-08-07T05:09:57;1.42;;;1.25;;
44426;SDS011;30133;47.866;-4.222;2022-08-07T05:12:08;3.17;;;1.30;;
44426;SDS011;30133;47.866;-4.222;2022-08-07T05:14:42;4.32;;;1.50;;
44426;SDS011;30133;47.866;-4.222;2022-08-07T05:17:11;2.75;;;1.77;;
44426;SDS011;30133;47.866;-4.222;2022-08-07T05:19:41;2.33;;;1.40;;
44426;SDS011;30133;47.866;-4.222;2022-08-07T05:22:20;1.58;;;1.25;;
44426;SDS011;30133;47.866;-4.222;2022-08-07T05:24:48;1.83;;;1.60;;
44426;SDS011;30133;47.866;-4.222;2022-08-07T05:27:15;2.08;;;1.55;;
44426;SDS011;30133;47.866;-4.222;2022-08-07T05:29:43;2.85;;;1.80;;
44426;SDS011;30133;47.866;-4.222;2022-08-07T05:32:11;3.10;;;1.35;;
44426;SDS011;30133;47.866;-4.222;2022-08-07T05:34:47;3.17;;;1.63;;
44426;SDS011;30133;47.866;-4.222;2022-08-07T05:37:15;2.58;;;1.45;;
44426;SDS011;30133;47.866;-4.222;2022-08-07T05:39:43;2.70;;;1.67;;
44426;SDS011;30133;47.866;-4.222;2022-08-07T05:42:10;2.90;;;1.60;;
44426;SDS011;30133;47.866;-4.222;2022-08-07T05:44:38;2.38;;;1.50;;
44426;SDS011;30133;47.866;-4.222;2022-08-07T05:47:06;3.53;;;1.73;;
44426;SDS011;30133;47.866;-4.222;2022-08-07T05:49:33;2.28;;;1.48;;
44426;SDS011;30133;47.866;-4.222;2022-08-07T05:51:59;2.90;;;1.65;;
44426;SDS011;30133;47.866;-4.222;2022-08-07T05:54:41;1.73;;;1.30;;
44426;SDS011;30133;47.866;-4.222;2022-08-07T05:57:20;4.20;;;1.85;;
44426;SDS011;30133;47.866;-4.222;2022-08-07T05:59:48;3.25;;;1.65;;
44426;SDS011;30133;47.866;-4.222;2022-08-07T06:02:14;1.80;;;1.45;;
44426;SDS011;30133;47.866;-4.222;2022-08-07T06:04:45;1.83;;;1.50;;
44426;SDS011;30133;47.866;-4.222;2022-08-07T06:07:27;2.28;;;1.40;;
44426;SDS011;30133;47.866;-4.222;2022-08-07T06:09:54;1.35;;;1.23;;
44426;SDS011;30133;47.866;-4.222;2022-08-07T06:12:20;1.40;;;1.27;;
44426;SDS011;30133;47.866;-4.222;2022-08-07T06:14:46;1.65;;;1.23;;
44426;SDS011;30133;47.866;-4.222;2022-08-07T06:17:13;2.03;;;1.27;;
44426;SDS011;30133;47.866;-4.222;2022-08-07T06:19:39;4.00;;;1.30;;
44426;SDS011;30133;47.866;-4.222;2022-08-07T06:22:06;5.63;;;1.60;;
44426;SDS011;30133;47.866;-4.222;2022-08-07T06:24:33;1.88;;;1.30;;
44426;SDS011;30133;47.866;-4.222;2022-08-07T06:27:02;1.67;;;1.20;;
44426;SDS011;30133;47.866;-4.222;2022-08-07T06:29:29;2.58;;;1.33;;
44426;SDS011;30133;47.866;-4.222;2022-08-07T06:31:55;4.40;;;1.70;;
44426;SDS011;30133;47.866;-4.222;2022-08-07T06:34:24;2.17;;;1.50;;
44426;SDS011;30133;47.866;-4.222;2022-08-07T06:36:51;3.05;;;1.60;;
44426;SDS011;30133;47.866;-4.222;2022-08-07T06:39:19;2.42;;;1.75;;
44426;SDS011;30133;47.866;-4.222;2022-08-07T06:41:53;2.95;;;1.60;;
44426;SDS011;30133;47.866;-4.222;2022-08-07T06:44:32;2.53;;;1.70;;
44426;SDS011;30133;47.866;-4.222;2022-08-07T06:46:59;2.28;;;1.73;;
44426;SDS011;30133;47.866;-4.222;2022-08-07T06:49:26;1.80;;;1.33;;
44426;SDS011;30133;47.866;-4.222;2022-08-07T06:51:52;2.40;;;1.50;;
44426;SDS011;30133;47.866;-4.222;2022-08-07T06:54:21;1.98;;;1.55;;
44426;SDS011;30133;47.866;-4.222;2022-08-07T06:56:50;2.60;;;1.10;;
44426;SDS011;30133;47.866;-4.222;2022-08-07T06:59:26;2.25;;;1.75;;
44426;SDS011;30133;47.866;-4.222;2022-08-07T07:01:57;2.53;;;1.40;;
44426;SDS011;30133;47.866;-4.222;2022-08-07T07:04:24;3.17;;;1.60;;
44426;SDS011;30133;47.866;-4.222;2022-08-07T07:06:50;1.98;;;1.35;;
44426;SDS011;30133;47.866;-4.222;2022-08-07T07:11:59;1.63;;;1.50;;
44426;SDS011;30133;47.866;-4.222;2022-08-07T07:17:25;2.08;;;1.38;;
44426;SDS011;30133;47.866;-4.222;2022-08-07T07:20:15;2.47;;;1.65;;
44426;SDS011;30133;47.866;-4.222;2022-08-07T07:22:48;1.58;;;1.27;;
44426;SDS011;30133;47.866;-4.222;2022-08-07T07:25:15;2.90;;;1.80;;
44426;SDS011;30133;47.866;-4.222;2022-08-07T07:27:47;1.42;;;1.30;;
44426;SDS011;30133;47.866;-4.222;2022-08-07T07:30:25;3.85;;;1.48;;
44426;SDS011;30133;47.866;-4.222;2022-08-07T07:32:57;1.42;;;1.17;;
44426;SDS011;30133;47.866;-4.222;2022-08-07T07:35:24;1.95;;;1.48;;
44426;SDS011;30133;47.866;-4.222;2022-08-07T07:37:51;2.60;;;1.30;;
44426;SDS011;30133;47.866;-4.222;2022-08-07T07:40:19;2.00;;;1.50;;
44426;SDS011;30133;47.866;-4.222;2022-08-07T07:42:48;2.10;;;1.33;;
44426;SDS011;30133;47.866;-4.222;2022-08-07T07:45:18;2.13;;;1.40;;
44426;SDS011;30133;47.866;-4.222;2022-08-07T07:47:50;2.37;;;1.60;;
44426;SDS011;30133;47.866;-4.222;2022-08-07T07:50:21;2.60;;;1.67;;
44426;SDS011;30133;47.866;-4.222;2022-08-07T07:52:49;1.85;;;1.67;;
44426;SDS011;30133;47.866;-4.222;2022-08-07T07:55:18;4.75;;;1.70;;
44426;SDS011;30133;47.866;-4.222;2022-08-07T07:57:46;2.08;;;1.50;;
44426;SDS011;30133;47.866;-4.222;2022-08-07T08:00:20;1.88;;;1.42;;
44426;SDS011;30133;47.866;-4.222;2022-08-07T08:02:49;1.90;;;1.50;;
44426;SDS011;30133;47.866;-4.222;2022-08-07T08:05:20;3.05;;;1.73;;
44426;SDS011;30133;47.866;-4.222;2022-08-07T08:07:49;1.83;;;1.48;;
44426;SDS011;30133;47.866;-4.222;2022-08-07T08:10:16;2.15;;;1.20;;
44426;SDS011;30133;47.866;-4.222;2022-08-07T08:12:44;1.88;;;1.65;;
44426;SDS011;30133;47.866;-4.222;2022-08-07T08:15:12;3.15;;;1.50;;
44426;SDS011;30133;47.866;-4.222;2022-08-07T08:17:39;2.00;;;1.50;;
44426;SDS011;30133;47.866;-4.222;2022-08-07T08:20:07;1.90;;;1.50;;
44426;SDS011;30133;47.866;-4.222;2022-08-07T08:22:37;3.63;;;1.75;;
44426;SDS011;30133;47.866;-4.222;2022-08-07T08:25:24;2.30;;;1.40;;
44426;SDS011;30133;47.866;-4.222;2022-08-07T08:28:14;1.80;;;1.35;;
44426;SDS011;30133;47.866;-4.222;2022-08-07T08:30:47;1.63;;;1.10;;
44426;SDS011;30133;47.866;-4.222;2022-08-07T08:33:18;1.90;;;1.33;;
44426;SDS011;30133;47.866;-4.222;2022-08-07T08:35:48;2.03;;;1.67;;
44426;SDS011;30133;47.866;-4.222;2022-08-07T08:38:16;2.58;;;1.50;;
44426;SDS011;30133;47.866;-4.222;2022-08-07T08:52:18;2.25;;;1.45;;
44426;SDS011;30133;47.866;-4.222;2022-08-07T08:54:59;2.58;;;1.80;;
44426;SDS011;30133;47.866;-4.222;2022-08-07T09:00:51;1.42;;;1.30;;
44426;SDS011;30133;47.866;-4.222;2022-08-07T09:03:29;1.73;;;1.52;;
44426;SDS011;30133;47.866;-4.222;2022-08-07T09:06:25;1.48;;;1.30;;
44426;SDS011;30133;47.866;-4.222;2022-08-07T09:09:34;2.58;;;1.70;;
44426;SDS011;30133;47.866;-4.222;2022-08-07T09:21:28;3.45;;;1.70;;
44426;SDS011;30133;47.866;-4.222;2022-08-07T09:26:45;2.13;;;1.48;;
44426;SDS011;30133;47.866;-4.222;2022-08-07T09:36:05;1.52;;;1.17;;
44426;SDS011;30133;47.866;-4.222;2022-08-07T09:38:41;1.40;;;1.10;;
44426;SDS011;30133;47.866;-4.222;2022-08-07T09:45:06;1.38;;;1.05;;
44426;SDS011;30133;47.866;-4.222;2022-08-07T09:47:41;1.95;;;1.52;;
44426;SDS011;30133;47.866;-4.222;2022-08-07T09:53:30;1.50;;;1.25;;
44426;SDS011;30133;47.866;-4.222;2022-08-07T10:17:05;1.65;;;1.30;;
44426;SDS011;30133;47.866;-4.222;2022-08-07T10:28:52;2.03;;;1.27;;
44426;SDS011;30133;47.866;-4.222;2022-08-07T10:44:05;1.40;;;1.20;;
44426;SDS011;30133;47.866;-4.222;2022-08-07T10:50:09;2.42;;;1.20;;
44426;SDS011;30133;47.866;-4.222;2022-08-07T10:53:35;2.00;;;1.38;;
44426;SDS011;30133;47.866;-4.222;2022-08-07T11:02:10;2.97;;;1.60;;
44426;SDS011;30133;47.866;-4.222;2022-08-07T11:13:38;2.10;;;1.45;;
44426;SDS011;30133;47.866;-4.222;2022-08-07T11:22:01;1.38;;;1.10;;
44426;SDS011;30133;47.866;-4.222;2022-08-07T11:24:54;2.25;;;1.48;;
44426;SDS011;30133;47.866;-4.222;2022-08-07T11:31:05;2.00;;;1.30;;
44426;SDS011;30133;47.866;-4.222;2022-08-07T11:34:16;1.30;;;1.20;;
44426;SDS011;30133;47.866;-4.222;2022-08-07T11:42:37;1.10;;;1.00;;
44426;SDS011;30133;47.866;-4.222;2022-08-07T11:45:43;2.47;;;1.27;;
44426;SDS011;30133;47.866;-4.222;2022-08-07T12:00:03;1.42;;;1.20;;
44426;SDS011;30133;47.866;-4.222;2022-08-07T12:06:00;3.15;;;1.40;;
44426;SDS011;30133;47.866;-4.222;2022-08-07T12:09:49;2.30;;;1.80;;
44426;SDS011;30133;47.866;-4.222;2022-08-07T12:12:35;1.73;;;1.58;;
44426;SDS011;30133;47.866;-4.222;2022-08-07T12:15:12;2.05;;;1.50;;
44426;SDS011;30133;47.866;-4.222;2022-08-07T12:18:02;2.22;;;1.65;;
44426;SDS011;30133;47.866;-4.222;2022-08-07T12:29:18;1.52;;;1.40;;
44426;SDS011;30133;47.866;-4.222;2022-08-07T12:34:42;3.00;;;1.35;;
44426;SDS011;30133;47.866;-4.222;2022-08-07T12:37:10;2.50;;;1.35;;
44426;SDS011;30133;47.866;-4.222;2022-08-07T12:39:41;2.75;;;1.52;;
44426;SDS011;30133;47.866;-4.222;2022-08-07T12:42:15;3.08;;;2.30;;
44426;SDS011;30133;47.866;-4.222;2022-08-07T12:44:47;2.20;;;1.48;;
44426;SDS011;30133;47.866;-4.222;2022-08-07T12:50:19;2.47;;;1.70;;
44426;SDS011;30133;47.866;-4.222;2022-08-07T12:55:51;2.10;;;1.73;;
44426;SDS011;30133;47.866;-4.222;2022-08-07T12:58:37;2.58;;;1.92;;
44426;SDS011;30133;47.866;-4.222;2022-08-07T13:10:29;1.65;;;1.45;;
44426;SDS011;30133;47.866;-4.222;2022-08-07T13:13:35;1.98;;;1.77;;
44426;SDS011;30133;47.866;-4.222;2022-08-07T13:16:26;2.85;;;1.92;;
44426;SDS011;30133;47.866;-4.222;2022-08-07T13:22:13;2.22;;;2.00;;
44426;SDS011;30133;47.866;-4.222;2022-08-07T13:25:09;2.95;;;1.73;;
44426;SDS011;30133;47.866;-4.222;2022-08-07T13:27:52;2.78;;;2.17;;
44426;SDS011;30133;47.866;-4.222;2022-08-07T13:30:23;3.13;;;2.15;;
44426;SDS011;30133;47.866;-4.222;2022-08-07T13:33:04;2.50;;;2.17;;
44426;SDS011;30133;47.866;-4.222;2022-08-07T13:36:02;2.88;;;2.08;;
44426;SDS011;30133;47.866;-4.222;2022-08-07T13:38:41;3.45;;;2.22;;
44426;SDS011;30133;47.866;-4.222;2022-08-07T13:44:13;3.95;;;2.40;;
44426;SDS011;30133;47.866;-4.222;2022-08-07T13:46:46;3.53;;;2.60;;
44426;SDS011;30133;47.866;-4.222;2022-08-07T13:49:18;2.33;;;1.95;;
44426;SDS011;30133;47.866;-4.222;2022-08-07T13:51:46;3.50;;;2.45;;
44426;SDS011;30133;47.866;-4.222;2022-08-07T13:54:15;3.17;;;2.10;;
44426;SDS011;30133;47.866;-4.222;2022-08-07T13:56:42;2.88;;;2.38;;
44426;SDS011;30133;47.866;-4.222;2022-08-07T14:01:50;4.25;;;2.83;;
44426;SDS011;30133;47.866;-4.222;2022-08-07T14:04:48;3.00;;;2.42;;
44426;SDS011;30133;47.866;-4.222;2022-08-07T14:07:38;3.28;;;2.60;;
44426;SDS011;30133;47.866;-4.222;2022-08-07T14:10:17;2.97;;;2.45;;
44426;SDS011;30133;47.866;-4.222;2022-08-07T14:18:18;2.95;;;2.42;;
44426;SDS011;30133;47.866;-4.222;2022-08-07T14:21:16;4.15;;;2.83;;
44426;SDS011;30133;47.866;-4.222;2022-08-07T14:23:55;3.97;;;2.65;;
44426;SDS011;30133;47.866;-4.222;2022-08-07T14:26:34;3.05;;;2.75;;
44426;SDS011;30133;47.866;-4.222;2022-08-07T14:29:22;3.40;;;2.57;;
44426;SDS011;30133;47.866;-4.222;2022-08-07T14:31:54;4.15;;;3.15;;
44426;SDS011;30133;47.866;-4.222;2022-08-07T14:34:26;5.07;;;2.83;;
44426;SDS011;30133;47.866;-4.222;2022-08-07T14:36:54;4.30;;;3.15;;
44426;SDS011;30133;47.866;-4.222;2022-08-07T14:39:24;4.70;;;3.25;;
44426;SDS011;30133;47.866;-4.222;2022-08-07T14:41:51;3.58;;;2.90;;
44426;SDS011;30133;47.866;-4.222;2022-08-07T14:44:17;3.80;;;3.08;;
44426;SDS011;30133;47.866;-4.222;2022-08-07T14:46:45;3.67;;;2.83;;
44426;SDS011;30133;47.866;-4.222;2022-08-07T14:49:13;3.75;;;3.08;;
44426;SDS011;30133;47.866;-4.222;2022-08-07T14:51:41;9.07;;;3.50;;
44426;SDS011;30133;47.866;-4.222;2022-08-07T14:54:15;4.55;;;3.30;;
44426;SDS011;30133;47.866;-4.222;2022-08-07T14:56:42;4.35;;;3.50;;
44426;SDS011;30133;47.866;-4.222;2022-08-07T14:59:12;4.45;;;2.95;;
44426;SDS011;30133;47.866;-4.222;2022-08-07T15:01:44;3.80;;;2.97;;
44426;SDS011;30133;47.866;-4.222;2022-08-07T15:04:11;4.57;;;3.22;;
44426;SDS011;30133;47.866;-4.222;2022-08-07T15:06:38;5.50;;;3.63;;
44426;SDS011;30133;47.866;-4.222;2022-08-07T15:09:12;5.10;;;3.50;;
44426;SDS011;30133;47.866;-4.222;2022-08-07T15:12:04;4.93;;;3.33;;
44426;SDS011;30133;47.866;-4.222;2022-08-07T15:14:33;4.78;;;3.40;;
44426;SDS011;30133;47.866;-4.222;2022-08-07T15:17:03;4.63;;;3.42;;
44426;SDS011;30133;47.866;-4.222;2022-08-07T15:19:43;5.43;;;3.60;;
44426;SDS011;30133;47.866;-4.222;2022-08-07T15:22:22;4.55;;;3.67;;
44426;SDS011;30133;47.866;-4.222;2022-08-07T15:24:52;5.05;;;4.00;;
44426;SDS011;30133;47.866;-4.222;2022-08-07T15:27:25;6.53;;;4.03;;
44426;SDS011;30133;47.866;-4.222;2022-08-07T15:29:56;5.57;;;3.60;;
44426;SDS011;30133;47.866;-4.222;2022-08-07T15:32:32;4.78;;;3.75;;
44426;SDS011;30133;47.866;-4.222;2022-08-07T15:35:05;5.68;;;4.07;;
44426;SDS011;30133;47.866;-4.222;2022-08-07T15:37:47;5.35;;;3.88;;
44426;SDS011;30133;47.866;-4.222;2022-08-07T15:40:18;6.20;;;4.10;;
44426;SDS011;30133;47.866;-4.222;2022-08-07T15:42:47;6.90;;;4.20;;
44426;SDS011;30133;47.866;-4.222;2022-08-07T15:47:52;5.15;;;3.78;;
44426;SDS011;30133;47.866;-4.222;2022-08-07T15:50:27;4.70;;;3.80;;
44426;SDS011;30133;47.866;-4.222;2022-08-07T15:52:57;4.47;;;3.55;;
44426;SDS011;30133;47.866;-4.222;2022-08-07T15:55:32;5.15;;;4.40;;
44426;SDS011;30133;47.866;-4.222;2022-08-07T15:58:00;5.38;;;4.25;;
44426;SDS011;30133;47.866;-4.222;2022-08-07T16:00:35;5.38;;;4.05;;
44426;SDS011;30133;47.866;-4.222;2022-08-07T16:03:06;4.70;;;3.78;;
44426;SDS011;30133;47.866;-4.222;2022-08-07T16:05:43;6.45;;;4.10;;
44426;SDS011;30133;47.866;-4.222;2022-08-07T16:08:15;4.78;;;4.10;;
44426;SDS011;30133;47.866;-4.222;2022-08-07T16:10:54;7.10;;;4.22;;
44426;SDS011;30133;47.866;-4.222;2022-08-07T16:13:55;5.10;;;4.05;;
44426;SDS011;30133;47.866;-4.222;2022-08-07T16:17:01;4.30;;;3.40;;
44426;SDS011;30133;47.866;-4.222;2022-08-07T16:28:37;4.30;;;3.30;;
44426;SDS011;30133;47.866;-4.222;2022-08-07T16:40:29;4.50;;;3.90;;
44426;SDS011;30133;47.866;-4.222;2022-08-07T16:43:57;3.97;;;3.53;;
44426;SDS011;30133;47.866;-4.222;2022-08-07T16:50:20;4.57;;;3.53;;
44426;SDS011;30133;47.866;-4.222;2022-08-07T16:59:37;4.22;;;3.83;;
44426;SDS011;30133;47.866;-4.222;2022-08-07T17:08:37;6.85;;;3.85;;
44426;SDS011;30133;47.866;-4.222;2022-08-07T17:11:26;4.82;;;3.80;;
44426;SDS011;30133;47.866;-4.222;2022-08-07T17:14:15;5.05;;;3.85;;
44426;SDS011;30133;47.866;-4.222;2022-08-07T17:16:59;5.30;;;3.60;;
44426;SDS011;30133;47.866;-4.222;2022-08-07T17:22:07;4.88;;;3.70;;
44426;SDS011;30133;47.866;-4.222;2022-08-07T17:27:54;4.78;;;3.80;;
44426;SDS011;30133;47.866;-4.222;2022-08-07T17:33:37;5.40;;;3.95;;
44426;SDS011;30133;47.866;-4.222;2022-08-07T17:41:40;4.60;;;3.20;;
44426;SDS011;30133;47.866;-4.222;2022-08-07T17:46:57;5.22;;;3.60;;
44426;SDS011;30133;47.866;-4.222;2022-08-07T17:52:38;5.33;;;3.63;;
44426;SDS011;30133;47.866;-4.222;2022-08-07T17:55:20;3.67;;;3.05;;
44426;SDS011;30133;47.866;-4.222;2022-08-07T17:58:08;3.88;;;3.28;;
44426;SDS011;30133;47.866;-4.222;2022-08-07T18:00:45;4.53;;;3.58;;
44426;SDS011;30133;47.866;-4.222;2022-08-07T18:03:25;3.60;;;2.80;;
44426;SDS011;30133;47.866;-4.222;2022-08-07T18:06:07;4.60;;;3.47;;
44426;SDS011;30133;47.866;-4.222;2022-08-07T18:11:14;4.65;;;3.40;;
44426;SDS011;30133;47.866;-4.222;2022-08-07T18:14:25;3.83;;;3.22;;
44426;SDS011;30133;47.866;-4.222;2022-08-07T18:20:08;3.88;;;3.22;;
44426;SDS011;30133;47.866;-4.222;2022-08-07T18:22:47;3.42;;;3.10;;
44426;SDS011;30133;47.866;-4.222;2022-08-07T18:25:16;4.28;;;3.42;;
44426;SDS011;30133;47.866;-4.222;2022-08-07T18:42:38;4.55;;;3.53;;
44426;SDS011;30133;47.866;-4.222;2022-08-07T18:45:31;7.10;;;3.45;;
44426;SDS011;30133;47.866;-4.222;2022-08-07T18:48:16;3.88;;;2.92;;
44426;SDS011;30133;47.866;-4.222;2022-08-07T18:51:17;4.05;;;3.15;;
44426;SDS011;30133;47.866;-4.222;2022-08-07T18:54:20;3.70;;;2.88;;
44426;SDS011;30133;47.866;-4.222;2022-08-07T18:57:13;4.75;;;3.35;;
44426;SDS011;30133;47.866;-4.222;2022-08-07T19:00:21;4.55;;;3.78;;
44426;SDS011;30133;47.866;-4.222;2022-08-07T19:03:23;3.95;;;2.92;;
44426;SDS011;30133;47.866;-4.222;2022-08-07T19:05:59;3.72;;;3.22;;
44426;SDS011;30133;47.866;-4.222;2022-08-07T19:08:42;3.70;;;2.88;;
44426;SDS011;30133;47.866;-4.222;2022-08-07T19:11:19;4.40;;;3.17;;
44426;SDS011;30133;47.866;-4.222;2022-08-07T19:14:13;3.42;;;2.88;;
44426;SDS011;30133;47.866;-4.222;2022-08-07T19:22:55;4.60;;;3.80;;
44426;SDS011;30133;47.866;-4.222;2022-08-07T19:25:27;4.47;;;3.40;;
44426;SDS011;30133;47.866;-4.222;2022-08-07T19:28:02;4.10;;;2.97;;
44426;SDS011;30133;47.866;-4.222;2022-08-07T19:30:32;4.65;;;3.22;;
44426;SDS011;30133;47.866;-4.222;2022-08-07T19:33:01;3.97;;;2.75;;
44426;SDS011;30133;47.866;-4.222;2022-08-07T19:35:31;3.95;;;3.15;;
44426;SDS011;30133;47.866;-4.222;2022-08-07T19:38:00;4.13;;;3.55;;
44426;SDS011;30133;47.866;-4.222;2022-08-07T19:40:40;3.67;;;3.17;;
44426;SDS011;30133;47.866;-4.222;2022-08-07T19:43:08;3.50;;;3.13;;
44426;SDS011;30133;47.866;-4.222;2022-08-07T19:45:43;5.18;;;3.35;;
44426;SDS011;30133;47.866;-4.222;2022-08-07T19:48:15;3.70;;;2.90;;
44426;SDS011;30133;47.866;-4.222;2022-08-07T19:50:58;4.20;;;2.92;;